sensor_id;sensor_type;location;lat;lon;timestamp;pressure;altitude;pressure_sealevel;temperature;humidity
15604;BME280;7902;49.042;9.092;2023-04-15T00:01:34;98130.19;;;11.40;51.88
15604;BME280;7902;49.042;9.092;2023-04-15T00:04:01;98124.81;;;11.32;52.05
15604;BME280;7902;49.042;9.092;2023-04-15T00:06:27;98125.34;;;11.26;52.58
15604;BME280;7902;49.042;9.092;2023-04-15T00:08:53;98121.22;;;11.33;52.13
15604;BME280;7902;49.042;9.092;2023-04-15T00:11:20;98122.31;;;11.21;51.62
15604;BME280;7902;49.042;9.092;2023-04-15T00:13:46;98117.22;;;11.10;52.22
15604;BME280;7902;49.042;9.092;2023-04-15T00:16:12;98116.78;;;11.24;51.79
15604;BME280;7902;49.042;9.092;2023-04-15T00:18:37;98124.56;;;11.16;52.07
15604;BME280;7902;49.042;9.092;2023-04-15T00:21:04;98121.09;;;11.15;52.35
15604;BME280;7902;49.042;9.092;2023-04-15T00:23:30;98121.75;;;11.08;52.69
15604;BME280;7902;49.042;9.092;2023-04-15T00:25:56;98119.00;;;10.99;53.19
15604;BME280;7902;49.042;9.092;2023-04-15T00:28:22;98122.47;;;11.00;53.10
15604;BME280;7902;49.042;9.092;2023-04-15T00:30:49;98122.19;;;11.03;53.03
15604;BME280;7902;49.042;9.092;2023-04-15T00:33:15;98124.25;;;11.09;51.96
15604;BME280;7902;49.042;9.092;2023-04-15T00:35:41;98122.19;;;11.13;51.71
15604;BME280;7902;49.042;9.092;2023-04-15T00:38:07;98124.69;;;11.14;51.98
15604;BME280;7902;49.042;9.092;2023-04-15T00:40:33;98120.25;;;11.05;52.12
15604;BME280;7902;49.042;9.092;2023-04-15T00:43:00;98119.84;;;11.00;52.46
15604;BME280;7902;49.042;9.092;2023-04-15T00:45:26;98112.38;;;10.95;52.42
15604;BME280;7902;49.042;9.092;2023-04-15T00:47:55;98119.97;;;11.08;52.51
15604;BME280;7902;49.042;9.092;2023-04-15T00:50:21;98118.03;;;11.00;52.32
15604;BME280;7902;49.042;9.092;2023-04-15T00:52:47;98122.75;;;10.97;53.07
15604;BME280;7902;49.042;9.092;2023-04-15T00:55:14;98115.25;;;11.02;51.69
15604;BME280;7902;49.042;9.092;2023-04-15T00:57:40;98115.00;;;10.95;52.94
15604;BME280;7902;49.042;9.092;2023-04-15T01:00:07;98111.66;;;10.93;52.63
15604;BME280;7902;49.042;9.092;2023-04-15T01:02:34;98122.75;;;10.87;53.03
15604;BME280;7902;49.042;9.092;2023-04-15T01:05:01;98127.00;;;10.79;53.04
15604;BME280;7902;49.042;9.092;2023-04-15T01:07:29;98126.00;;;10.70;53.68
15604;BME280;7902;49.042;9.092;2023-04-15T01:09:55;98127.81;;;10.70;53.45
15604;BME280;7902;49.042;9.092;2023-04-15T01:12:23;98124.31;;;10.50;53.09
15604;BME280;7902;49.042;9.092;2023-04-15T01:14:52;98126.38;;;10.46;53.84
15604;BME280;7902;49.042;9.092;2023-04-15T01:17:18;98131.19;;;10.41;54.01
15604;BME280;7902;49.042;9.092;2023-04-15T01:19:44;98131.34;;;10.40;54.17
15604;BME280;7902;49.042;9.092;2023-04-15T01:22:10;98132.72;;;10.44;52.92
15604;BME280;7902;49.042;9.092;2023-04-15T01:24:36;98136.69;;;10.29;53.98
15604;BME280;7902;49.042;9.092;2023-04-15T01:27:03;98137.34;;;10.21;53.73
15604;BME280;7902;49.042;9.092;2023-04-15T01:29:31;98136.16;;;10.35;53.70
15604;BME280;7902;49.042;9.092;2023-04-15T01:31:57;98133.66;;;10.33;53.62
15604;BME280;7902;49.042;9.092;2023-04-15T01:34:23;98130.03;;;10.25;54.51
15604;BME280;7902;49.042;9.092;2023-04-15T01:36:49;98126.44;;;10.16;54.42
15604;BME280;7902;49.042;9.092;2023-04-15T01:39:15;98127.53;;;10.23;53.72
15604;BME280;7902;49.042;9.092;2023-04-15T01:41:41;98126.34;;;10.06;54.66
15604;BME280;7902;49.042;9.092;2023-04-15T01:44:07;98122.78;;;10.07;54.82
15604;BME280;7902;49.042;9.092;2023-04-15T01:46:34;98125.53;;;10.06;53.76
15604;BME280;7902;49.042;9.092;2023-04-15T01:49:00;98122.78;;;10.07;53.70
15604;BME280;7902;49.042;9.092;2023-04-15T01:51:26;98117.53;;;10.07;54.89
15604;BME280;7902;49.042;9.092;2023-04-15T01:53:52;98116.38;;;10.00;54.02
15604;BME280;7902;49.042;9.092;2023-04-15T01:56:21;98110.56;;;9.97;54.77
15604;BME280;7902;49.042;9.092;2023-04-15T01:58:48;98113.63;;;10.02;54.81
15604;BME280;7902;49.042;9.092;2023-04-15T02:01:14;98111.13;;;10.00;54.38
15604;BME280;7902;49.042;9.092;2023-04-15T02:03:41;98116.53;;;10.08;54.53
15604;BME280;7902;49.042;9.092;2023-04-15T02:06:07;98108.28;;;10.13;53.97
15604;BME280;7902;49.042;9.092;2023-04-15T02:08:33;98109.25;;;10.12;54.63
15604;BME280;7902;49.042;9.092;2023-04-15T02:10:59;98101.13;;;10.15;54.10
15604;BME280;7902;49.042;9.092;2023-04-15T02:13:25;98110.19;;;10.01;54.52
15604;BME280;7902;49.042;9.092;2023-04-15T02:15:53;98113.88;;;9.99;54.69
15604;BME280;7902;49.042;9.092;2023-04-15T02:18:19;98106.72;;;10.01;54.65
15604;BME280;7902;49.042;9.092;2023-04-15T02:20:46;98107.56;;;10.01;54.56
15604;BME280;7902;49.042;9.092;2023-04-15T02:23:13;98099.97;;;10.08;53.59
15604;BME280;7902;49.042;9.092;2023-04-15T02:25:39;98101.53;;;10.10;54.19
15604;BME280;7902;49.042;9.092;2023-04-15T02:28:05;98108.94;;;10.05;54.50
15604;BME280;7902;49.042;9.092;2023-04-15T02:30:32;98120.09;;;9.98;54.77
15604;BME280;7902;49.042;9.092;2023-04-15T02:32:59;98110.00;;;9.93;54.80
15604;BME280;7902;49.042;9.092;2023-04-15T02:35:25;98120.47;;;9.84;54.48
15604;BME280;7902;49.042;9.092;2023-04-15T02:37:51;98114.63;;;9.80;54.62
15604;BME280;7902;49.042;9.092;2023-04-15T02:40:17;98110.31;;;9.69;55.13
15604;BME280;7902;49.042;9.092;2023-04-15T02:42:43;98109.59;;;9.67;55.46
15604;BME280;7902;49.042;9.092;2023-04-15T02:45:10;98111.56;;;9.75;55.10
15604;BME280;7902;49.042;9.092;2023-04-15T02:47:37;98114.31;;;9.74;54.57
15604;BME280;7902;49.042;9.092;2023-04-15T02:50:07;98116.06;;;9.63;55.00
15604;BME280;7902;49.042;9.092;2023-04-15T02:52:34;98121.69;;;9.59;55.51
15604;BME280;7902;49.042;9.092;2023-04-15T02:55:00;98118.41;;;9.66;54.77
15604;BME280;7902;49.042;9.092;2023-04-15T02:57:27;98110.44;;;9.68;55.10
15604;BME280;7902;49.042;9.092;2023-04-15T02:59:54;98106.91;;;9.58;54.94
15604;BME280;7902;49.042;9.092;2023-04-15T03:02:20;98109.28;;;9.61;54.85
15604;BME280;7902;49.042;9.092;2023-04-15T03:04:45;98115.50;;;9.60;55.47
15604;BME280;7902;49.042;9.092;2023-04-15T03:07:11;98121.06;;;9.46;54.80
15604;BME280;7902;49.042;9.092;2023-04-15T03:09:37;98119.63;;;9.42;55.35
15604;BME280;7902;49.042;9.092;2023-04-15T03:12:05;98112.22;;;9.47;55.13
15604;BME280;7902;49.042;9.092;2023-04-15T03:14:31;98113.25;;;9.35;56.11
15604;BME280;7902;49.042;9.092;2023-04-15T03:16:57;98104.63;;;9.44;55.89
15604;BME280;7902;49.042;9.092;2023-04-15T03:19:24;98110.59;;;9.46;55.53
15604;BME280;7902;49.042;9.092;2023-04-15T03:21:50;98108.19;;;9.43;55.82
15604;BME280;7902;49.042;9.092;2023-04-15T03:24:17;98112.59;;;9.42;55.28
15604;BME280;7902;49.042;9.092;2023-04-15T03:26:42;98110.19;;;9.50;55.26
15604;BME280;7902;49.042;9.092;2023-04-15T03:29:08;98111.25;;;9.48;55.00
15604;BME280;7902;49.042;9.092;2023-04-15T03:31:34;98110.31;;;9.49;55.66
15604;BME280;7902;49.042;9.092;2023-04-15T03:34:00;98110.81;;;9.43;55.24
15604;BME280;7902;49.042;9.092;2023-04-15T03:36:28;98103.16;;;9.51;55.28
15604;BME280;7902;49.042;9.092;2023-04-15T03:38:54;98104.50;;;9.45;55.26
15604;BME280;7902;49.042;9.092;2023-04-15T03:41:21;98099.78;;;9.39;55.01
15604;BME280;7902;49.042;9.092;2023-04-15T03:43:47;98101.94;;;9.34;54.95
15604;BME280;7902;49.042;9.092;2023-04-15T03:46:13;98107.09;;;9.24;55.53
15604;BME280;7902;49.042;9.092;2023-04-15T03:48:38;98098.56;;;9.22;56.28
15604;BME280;7902;49.042;9.092;2023-04-15T03:51:04;98105.97;;;9.17;56.19
15604;BME280;7902;49.042;9.092;2023-04-15T03:53:31;98104.31;;;9.16;55.86
15604;BME280;7902;49.042;9.092;2023-04-15T03:55:57;98104.59;;;9.23;55.77
15604;BME280;7902;49.042;9.092;2023-04-15T03:58:23;98106.91;;;9.16;55.48
15604;BME280;7902;49.042;9.092;2023-04-15T04:00:48;98102.19;;;9.10;55.71
15604;BME280;7902;49.042;9.092;2023-04-15T04:03:14;98109.53;;;9.16;55.91
15604;BME280;7902;49.042;9.092;2023-04-15T04:05:41;98099.50;;;9.21;56.10
15604;BME280;7902;49.042;9.092;2023-04-15T04:08:07;98107.69;;;9.28;55.56
15604;BME280;7902;49.042;9.092;2023-04-15T04:10:33;98105.31;;;9.25;55.89
15604;BME280;7902;49.042;9.092;2023-04-15T04:12:58;98109.72;;;9.24;55.28
15604;BME280;7902;49.042;9.092;2023-04-15T04:15:24;98104.97;;;9.18;55.63
15604;BME280;7902;49.042;9.092;2023-04-15T04:17:50;98109.03;;;9.22;56.01
15604;BME280;7902;49.042;9.092;2023-04-15T04:20:16;98109.34;;;9.29;55.67
15604;BME280;7902;49.042;9.092;2023-04-15T04:22:42;98107.63;;;9.39;55.59
15604;BME280;7902;49.042;9.092;2023-04-15T04:25:08;98111.09;;;9.40;55.41
15604;BME280;7902;49.042;9.092;2023-04-15T04:27:37;98117.66;;;9.34;55.55
15604;BME280;7902;49.042;9.092;2023-04-15T04:30:04;98115.03;;;9.34;55.37
15604;BME280;7902;49.042;9.092;2023-04-15T04:32:30;98126.16;;;9.27;55.94
15604;BME280;7902;49.042;9.092;2023-04-15T04:34:56;98120.19;;;9.24;55.34
15604;BME280;7902;49.042;9.092;2023-04-15T04:37:22;98126.09;;;9.17;55.97
15604;BME280;7902;49.042;9.092;2023-04-15T04:39:48;98125.00;;;9.19;56.00
15604;BME280;7902;49.042;9.092;2023-04-15T04:42:14;98128.81;;;9.15;55.51
15604;BME280;7902;49.042;9.092;2023-04-15T04:44:40;98128.72;;;9.17;55.97
15604;BME280;7902;49.042;9.092;2023-04-15T04:47:06;98129.09;;;9.12;56.06
15604;BME280;7902;49.042;9.092;2023-04-15T04:49:32;98126.97;;;9.06;56.24
15604;BME280;7902;49.042;9.092;2023-04-15T04:51:58;98125.06;;;9.08;55.71
15604;BME280;7902;49.042;9.092;2023-04-15T04:54:24;98125.19;;;9.07;55.56
15604;BME280;7902;49.042;9.092;2023-04-15T04:56:50;98126.00;;;9.07;55.46
15604;BME280;7902;49.042;9.092;2023-04-15T04:59:16;98129.56;;;9.06;55.64
15604;BME280;7902;49.042;9.092;2023-04-15T05:01:42;98130.97;;;9.10;55.82
15604;BME280;7902;49.042;9.092;2023-04-15T05:04:08;98141.25;;;9.02;55.92
15604;BME280;7902;49.042;9.092;2023-04-15T05:06:34;98130.41;;;9.07;56.10
15604;BME280;7902;49.042;9.092;2023-04-15T05:09:01;98125.63;;;9.12;55.94
15604;BME280;7902;49.042;9.092;2023-04-15T05:11:28;98139.03;;;9.18;56.09
15604;BME280;7902;49.042;9.092;2023-04-15T05:13:54;98135.22;;;9.22;55.32
15604;BME280;7902;49.042;9.092;2023-04-15T05:16:20;98142.19;;;9.12;56.08
15604;BME280;7902;49.042;9.092;2023-04-15T05:18:46;98148.28;;;9.02;56.04
15604;BME280;7902;49.042;9.092;2023-04-15T05:21:12;98138.38;;;9.05;56.22
15604;BME280;7902;49.042;9.092;2023-04-15T05:23:38;98133.16;;;9.05;56.14
15604;BME280;7902;49.042;9.092;2023-04-15T05:26:04;98139.09;;;9.07;55.67
15604;BME280;7902;49.042;9.092;2023-04-15T05:28:30;98135.75;;;9.05;55.92
15604;BME280;7902;49.042;9.092;2023-04-15T05:30:56;98135.75;;;9.05;55.91
15604;BME280;7902;49.042;9.092;2023-04-15T05:33:22;98134.56;;;9.09;56.21
15604;BME280;7902;49.042;9.092;2023-04-15T05:35:48;98134.69;;;9.08;56.27
15604;BME280;7902;49.042;9.092;2023-04-15T05:38:14;98127.69;;;9.08;55.92
15604;BME280;7902;49.042;9.092;2023-04-15T05:40:40;98141.94;;;9.04;56.34
15604;BME280;7902;49.042;9.092;2023-04-15T05:43:06;98140.78;;;9.08;56.09
15604;BME280;7902;49.042;9.092;2023-04-15T05:45:32;98137.88;;;9.11;56.01
15604;BME280;7902;49.042;9.092;2023-04-15T05:47:57;98145.38;;;9.16;56.04
15604;BME280;7902;49.042;9.092;2023-04-15T05:50:23;98143.59;;;9.16;55.89
15604;BME280;7902;49.042;9.092;2023-04-15T05:52:49;98147.59;;;9.20;56.06
15604;BME280;7902;49.042;9.092;2023-04-15T05:55:15;98151.13;;;9.31;56.24
15604;BME280;7902;49.042;9.092;2023-04-15T05:57:41;98146.84;;;9.30;55.94
15604;BME280;7902;49.042;9.092;2023-04-15T06:00:08;98150.41;;;9.29;56.75
15604;BME280;7902;49.042;9.092;2023-04-15T06:02:34;98142.53;;;9.40;56.36
15604;BME280;7902;49.042;9.092;2023-04-15T06:05:01;98156.06;;;9.45;56.16
15604;BME280;7902;49.042;9.092;2023-04-15T06:07:26;98157.03;;;9.44;55.86
15604;BME280;7902;49.042;9.092;2023-04-15T06:09:52;98154.84;;;9.49;55.72
15604;BME280;7902;49.042;9.092;2023-04-15T06:12:18;98154.97;;;9.47;56.28
15604;BME280;7902;49.042;9.092;2023-04-15T06:14:44;98160.63;;;9.63;56.29
15604;BME280;7902;49.042;9.092;2023-04-15T06:17:10;98166.16;;;9.70;56.07
15604;BME280;7902;49.042;9.092;2023-04-15T06:19:36;98164.25;;;9.72;56.75
15604;BME280;7902;49.042;9.092;2023-04-15T06:22:02;98168.38;;;9.75;56.24
15604;BME280;7902;49.042;9.092;2023-04-15T06:24:28;98175.31;;;9.76;56.27
15604;BME280;7902;49.042;9.092;2023-04-15T06:26:54;98170.00;;;9.87;55.70
15604;BME280;7902;49.042;9.092;2023-04-15T06:29:20;98167.78;;;9.82;56.75
15604;BME280;7902;49.042;9.092;2023-04-15T06:31:47;98172.56;;;9.98;55.97
15604;BME280;7902;49.042;9.092;2023-04-15T06:34:14;98178.81;;;10.06;56.60
15604;BME280;7902;49.042;9.092;2023-04-15T06:36:40;98169.00;;;10.08;55.52
15604;BME280;7902;49.042;9.092;2023-04-15T06:39:06;98167.56;;;10.16;55.94
15604;BME280;7902;49.042;9.092;2023-04-15T06:41:31;98170.28;;;10.14;55.89
15604;BME280;7902;49.042;9.092;2023-04-15T06:43:58;98167.06;;;10.31;56.46
15604;BME280;7902;49.042;9.092;2023-04-15T06:46:24;98168.31;;;10.37;55.67
15604;BME280;7902;49.042;9.092;2023-04-15T06:48:50;98175.41;;;10.46;55.92
15604;BME280;7902;49.042;9.092;2023-04-15T06:51:17;98171.13;;;10.45;56.11
15604;BME280;7902;49.042;9.092;2023-04-15T06:53:43;98182.59;;;10.44;56.10
15604;BME280;7902;49.042;9.092;2023-04-15T06:56:09;98167.44;;;10.57;56.49
15604;BME280;7902;49.042;9.092;2023-04-15T06:58:35;98180.88;;;10.64;55.74
15604;BME280;7902;49.042;9.092;2023-04-15T07:01:01;98172.19;;;10.73;55.56
15604;BME280;7902;49.042;9.092;2023-04-15T07:03:28;98177.44;;;10.73;55.46
15604;BME280;7902;49.042;9.092;2023-04-15T07:05:53;98186.00;;;10.75;56.23
15604;BME280;7902;49.042;9.092;2023-04-15T07:08:19;98183.53;;;10.83;54.55
15604;BME280;7902;49.042;9.092;2023-04-15T07:10:46;98178.84;;;10.86;55.43
15604;BME280;7902;49.042;9.092;2023-04-15T07:13:12;98174.16;;;10.90;54.51
15604;BME280;7902;49.042;9.092;2023-04-15T07:15:38;98176.91;;;10.88;54.98
15604;BME280;7902;49.042;9.092;2023-04-15T07:18:04;98175.66;;;10.92;54.39
15604;BME280;7902;49.042;9.092;2023-04-15T07:20:30;98170.56;;;10.91;55.56
15604;BME280;7902;49.042;9.092;2023-04-15T07:22:56;98170.72;;;10.99;54.73
15604;BME280;7902;49.042;9.092;2023-04-15T07:25:22;98171.13;;;10.94;54.32
15604;BME280;7902;49.042;9.092;2023-04-15T07:27:48;98173.06;;;11.02;55.46
15604;BME280;7902;49.042;9.092;2023-04-15T07:30:14;98167.56;;;11.15;55.09
15604;BME280;7902;49.042;9.092;2023-04-15T07:32:41;98171.69;;;11.27;55.20
15604;BME280;7902;49.042;9.092;2023-04-15T07:35:07;98162.56;;;11.31;55.38
15604;BME280;7902;49.042;9.092;2023-04-15T07:37:34;98167.69;;;11.52;53.59
15604;BME280;7902;49.042;9.092;2023-04-15T07:40:01;98165.34;;;11.58;53.55
15604;BME280;7902;49.042;9.092;2023-04-15T07:42:26;98160.06;;;11.58;54.17
15604;BME280;7902;49.042;9.092;2023-04-15T07:44:53;98164.19;;;11.70;54.65
15604;BME280;7902;49.042;9.092;2023-04-15T07:47:19;98158.66;;;11.83;55.46
15604;BME280;7902;49.042;9.092;2023-04-15T07:49:45;98170.56;;;11.87;53.86
15604;BME280;7902;49.042;9.092;2023-04-15T07:52:12;98164.47;;;11.86;55.07
15604;BME280;7902;49.042;9.092;2023-04-15T07:54:37;98165.00;;;12.00;53.77
15604;BME280;7902;49.042;9.092;2023-04-15T07:57:04;98164.72;;;12.03;51.94
15604;BME280;7902;49.042;9.092;2023-04-15T07:59:30;98160.25;;;12.13;52.58
15604;BME280;7902;49.042;9.092;2023-04-15T08:01:58;98159.94;;;12.16;51.79
15604;BME280;7902;49.042;9.092;2023-04-15T08:04:24;98156.19;;;12.28;52.68
15604;BME280;7902;49.042;9.092;2023-04-15T08:06:50;98156.03;;;12.29;51.92
15604;BME280;7902;49.042;9.092;2023-04-15T08:09:17;98152.03;;;12.25;52.70
15604;BME280;7902;49.042;9.092;2023-04-15T08:11:43;98156.06;;;12.20;52.21
15604;BME280;7902;49.042;9.092;2023-04-15T08:14:10;98152.50;;;12.39;51.39
15604;BME280;7902;49.042;9.092;2023-04-15T08:16:36;98158.03;;;12.45;51.37
15604;BME280;7902;49.042;9.092;2023-04-15T08:19:02;98157.75;;;12.48;50.73
15604;BME280;7902;49.042;9.092;2023-04-15T08:21:28;98161.63;;;12.44;53.10
15604;BME280;7902;49.042;9.092;2023-04-15T08:23:55;98157.78;;;12.39;53.02
15604;BME280;7902;49.042;9.092;2023-04-15T08:26:21;98151.81;;;12.46;51.93
15604;BME280;7902;49.042;9.092;2023-04-15T08:28:48;98160.88;;;12.61;50.88
15604;BME280;7902;49.042;9.092;2023-04-15T08:31:14;98166.44;;;12.58;52.09
15604;BME280;7902;49.042;9.092;2023-04-15T08:33:41;98156.41;;;12.62;52.76
15604;BME280;7902;49.042;9.092;2023-04-15T08:36:07;98154.47;;;12.64;50.86
15604;BME280;7902;49.042;9.092;2023-04-15T08:38:33;98158.72;;;12.74;50.78
15604;BME280;7902;49.042;9.092;2023-04-15T08:41:03;98164.06;;;12.83;50.69
15604;BME280;7902;49.042;9.092;2023-04-15T08:43:40;98160.09;;;12.79;50.98
15604;BME280;7902;49.042;9.092;2023-04-15T08:46:11;98172.47;;;12.68;51.21
15604;BME280;7902;49.042;9.092;2023-04-15T08:48:37;98165.50;;;12.77;50.42
15604;BME280;7902;49.042;9.092;2023-04-15T08:51:05;98167.69;;;12.82;50.64
15604;BME280;7902;49.042;9.092;2023-04-15T08:53:31;98168.81;;;12.79;52.06
15604;BME280;7902;49.042;9.092;2023-04-15T08:56:03;98164.66;;;12.76;52.04
15604;BME280;7902;49.042;9.092;2023-04-15T08:58:31;98165.38;;;12.96;50.35
15604;BME280;7902;49.042;9.092;2023-04-15T09:00:57;98165.81;;;12.92;52.08
15604;BME280;7902;49.042;9.092;2023-04-15T09:03:23;98163.44;;;12.98;50.42
15604;BME280;7902;49.042;9.092;2023-04-15T09:05:49;98166.06;;;12.98;52.62
15604;BME280;7902;49.042;9.092;2023-04-15T09:08:15;98168.44;;;12.92;51.53
15604;BME280;7902;49.042;9.092;2023-04-15T09:10:41;98169.16;;;12.94;51.47
15604;BME280;7902;49.042;9.092;2023-04-15T09:13:07;98162.59;;;12.98;51.16
15604;BME280;7902;49.042;9.092;2023-04-15T09:15:37;98171.28;;;13.08;52.33
15604;BME280;7902;49.042;9.092;2023-04-15T09:18:03;98167.94;;;13.06;51.19
15604;BME280;7902;49.042;9.092;2023-04-15T09:20:29;98168.91;;;13.05;51.81
15604;BME280;7902;49.042;9.092;2023-04-15T09:22:55;98167.38;;;13.12;50.92
15604;BME280;7902;49.042;9.092;2023-04-15T09:27:51;98178.34;;;13.07;51.00
15604;BME280;7902;49.042;9.092;2023-04-15T09:30:17;98180.16;;;13.07;51.10
15604;BME280;7902;49.042;9.092;2023-04-15T09:32:52;98178.03;;;13.10;50.83
15604;BME280;7902;49.042;9.092;2023-04-15T09:35:20;98180.28;;;13.05;51.36
15604;BME280;7902;49.042;9.092;2023-04-15T09:37:50;98180.56;;;13.12;50.33
15604;BME280;7902;49.042;9.092;2023-04-15T09:40:36;98186.59;;;13.22;50.62
15604;BME280;7902;49.042;9.092;2023-04-15T09:43:07;98186.09;;;13.09;51.13
15604;BME280;7902;49.042;9.092;2023-04-15T09:45:34;98190.53;;;13.18;51.05
15604;BME280;7902;49.042;9.092;2023-04-15T09:48:20;98193.28;;;13.16;50.79
15604;BME280;7902;49.042;9.092;2023-04-15T09:50:49;98199.63;;;13.24;50.42
15604;BME280;7902;49.042;9.092;2023-04-15T09:53:17;98198.63;;;13.25;50.91
15604;BME280;7902;49.042;9.092;2023-04-15T09:55:55;98193.22;;;13.26;50.84
15604;BME280;7902;49.042;9.092;2023-04-15T09:58:22;98203.19;;;13.32;52.05
15604;BME280;7902;49.042;9.092;2023-04-15T10:00:50;98198.72;;;13.33;51.04
15604;BME280;7902;49.042;9.092;2023-04-15T10:03:27;98200.03;;;13.46;51.01
15604;BME280;7902;49.042;9.092;2023-04-15T10:05:59;98201.00;;;13.45;51.02
15604;BME280;7902;49.042;9.092;2023-04-15T10:08:30;98197.38;;;13.46;50.71
15604;BME280;7902;49.042;9.092;2023-04-15T10:10:58;98201.13;;;13.44;50.55
15604;BME280;7902;49.042;9.092;2023-04-15T10:13:26;98198.50;;;13.44;51.07
15604;BME280;7902;49.042;9.092;2023-04-15T10:15:58;98200.31;;;13.43;51.31
15604;BME280;7902;49.042;9.092;2023-04-15T10:18:26;98198.50;;;13.44;50.74
15604;BME280;7902;49.042;9.092;2023-04-15T10:20:53;98192.69;;;13.58;50.40
15604;BME280;7902;49.042;9.092;2023-04-15T10:23:21;98193.91;;;13.63;51.34
15604;BME280;7902;49.042;9.092;2023-04-15T10:25:48;98211.75;;;13.70;50.49
15604;BME280;7902;49.042;9.092;2023-04-15T10:28:16;98201.88;;;13.72;50.43
15604;BME280;7902;49.042;9.092;2023-04-15T10:30:42;98196.03;;;13.86;50.70
15604;BME280;7902;49.042;9.092;2023-04-15T10:33:08;98189.66;;;13.88;50.20
15604;BME280;7902;49.042;9.092;2023-04-15T10:35:36;98198.69;;;13.86;50.58
15604;BME280;7902;49.042;9.092;2023-04-15T10:38:02;98195.00;;;13.79;50.14
15604;BME280;7902;49.042;9.092;2023-04-15T10:40:49;98205.84;;;13.76;50.47
15604;BME280;7902;49.042;9.092;2023-04-15T10:43:24;98204.56;;;13.80;50.25
15604;BME280;7902;49.042;9.092;2023-04-15T10:45:52;98210.00;;;13.78;50.61
15604;BME280;7902;49.042;9.092;2023-04-15T10:48:18;98210.22;;;13.85;49.86
15604;BME280;7902;49.042;9.092;2023-04-15T10:50:55;98216.69;;;13.90;49.96
15604;BME280;7902;49.042;9.092;2023-04-15T10:53:28;98210.50;;;13.99;50.30
15604;BME280;7902;49.042;9.092;2023-04-15T10:55:56;98212.94;;;13.93;50.35
15604;BME280;7902;49.042;9.092;2023-04-15T10:58:24;98210.91;;;13.87;50.34
15604;BME280;7902;49.042;9.092;2023-04-15T11:00:52;98210.44;;;13.91;50.02
15604;BME280;7902;49.042;9.092;2023-04-15T11:03:54;98201.91;;;13.97;50.45
15604;BME280;7902;49.042;9.092;2023-04-15T11:06:20;98209.94;;;13.88;50.25
15604;BME280;7902;49.042;9.092;2023-04-15T11:09:05;98208.69;;;14.00;49.83
15604;BME280;7902;49.042;9.092;2023-04-15T11:12:08;98212.66;;;14.04;50.64
15604;BME280;7902;49.042;9.092;2023-04-15T11:14:39;98204.53;;;14.23;50.54
15604;BME280;7902;49.042;9.092;2023-04-15T11:17:05;98208.59;;;14.35;50.00
15604;BME280;7902;49.042;9.092;2023-04-15T11:19:37;98212.44;;;14.41;49.76
15604;BME280;7902;49.042;9.092;2023-04-15T11:22:07;98209.03;;;14.48;49.46
15604;BME280;7902;49.042;9.092;2023-04-15T11:24:34;98213.81;;;14.45;50.36
15604;BME280;7902;49.042;9.092;2023-04-15T11:27:00;98211.22;;;14.35;49.85
15604;BME280;7902;49.042;9.092;2023-04-15T11:29:30;98213.88;;;14.35;50.06
15604;BME280;7902;49.042;9.092;2023-04-15T11:32:07;98204.53;;;14.23;49.47
15604;BME280;7902;49.042;9.092;2023-04-15T11:34:33;98212.19;;;14.26;49.79
15604;BME280;7902;49.042;9.092;2023-04-15T11:37:04;98213.81;;;14.27;49.84
15604;BME280;7902;49.042;9.092;2023-04-15T11:39:31;98212.69;;;14.30;50.10
15604;BME280;7902;49.042;9.092;2023-04-15T11:41:57;98223.03;;;14.23;49.77
15604;BME280;7902;49.042;9.092;2023-04-15T11:44:23;98218.47;;;14.33;50.39
15604;BME280;7902;49.042;9.092;2023-04-15T11:46:49;98232.38;;;14.35;50.38
15604;BME280;7902;49.042;9.092;2023-04-15T11:49:30;98247.09;;;14.20;48.69
15604;BME280;7902;49.042;9.092;2023-04-15T11:51:58;98247.66;;;14.49;48.86
15604;BME280;7902;49.042;9.092;2023-04-15T11:54:25;98263.81;;;14.46;48.09
15604;BME280;7902;49.042;9.092;2023-04-15T11:56:51;98253.56;;;14.43;48.54
15604;BME280;7902;49.042;9.092;2023-04-15T11:59:19;98256.19;;;14.43;48.65
15604;BME280;7902;49.042;9.092;2023-04-15T12:01:45;98265.09;;;14.42;47.77
15604;BME280;7902;49.042;9.092;2023-04-15T12:04:16;98279.97;;;14.43;49.09
15604;BME280;7902;49.042;9.092;2023-04-15T12:06:44;98270.38;;;14.42;49.27
15604;BME280;7902;49.042;9.092;2023-04-15T12:09:15;98276.88;;;14.48;49.53
15604;BME280;7902;49.042;9.092;2023-04-15T12:11:48;98288.91;;;14.50;49.54
15604;BME280;7902;49.042;9.092;2023-04-15T12:14:25;98292.19;;;14.44;49.19
15604;BME280;7902;49.042;9.092;2023-04-15T12:16:53;98297.78;;;14.41;48.98
15604;BME280;7902;49.042;9.092;2023-04-15T12:19:39;98286.84;;;14.36;49.18
15604;BME280;7902;49.042;9.092;2023-04-15T12:22:16;98297.84;;;14.32;48.01
15604;BME280;7902;49.042;9.092;2023-04-15T12:24:43;98294.78;;;14.36;46.87
15604;BME280;7902;49.042;9.092;2023-04-15T12:27:14;98290.03;;;14.40;47.27
15604;BME280;7902;49.042;9.092;2023-04-15T12:29:41;98301.16;;;14.34;47.15
15604;BME280;7902;49.042;9.092;2023-04-15T12:32:12;98300.28;;;14.43;46.07
15604;BME280;7902;49.042;9.092;2023-04-15T12:34:51;98292.81;;;14.38;46.19
15604;BME280;7902;49.042;9.092;2023-04-15T12:37:17;98308.59;;;14.30;46.29
15604;BME280;7902;49.042;9.092;2023-04-15T12:39:44;98313.63;;;14.41;45.60
15604;BME280;7902;49.042;9.092;2023-04-15T12:42:11;98313.81;;;14.40;45.71
15604;BME280;7902;49.042;9.092;2023-04-15T12:44:38;98312.19;;;14.47;44.88
15604;BME280;7902;49.042;9.092;2023-04-15T12:47:04;98320.13;;;14.29;45.55
15604;BME280;7902;49.042;9.092;2023-04-15T12:49:30;98331.75;;;14.36;44.72
15604;BME280;7902;49.042;9.092;2023-04-15T12:51:59;98330.31;;;14.42;44.79
15604;BME280;7902;49.042;9.092;2023-04-15T12:54:25;98331.00;;;14.26;44.31
15604;BME280;7902;49.042;9.092;2023-04-15T12:56:52;98328.03;;;14.29;43.93
15604;BME280;7902;49.042;9.092;2023-04-15T12:59:19;98322.44;;;14.32;45.68
15604;BME280;7902;49.042;9.092;2023-04-15T13:01:46;98340.41;;;14.29;44.58
15604;BME280;7902;49.042;9.092;2023-04-15T13:04:13;98339.38;;;14.22;43.59
15604;BME280;7902;49.042;9.092;2023-04-15T13:06:39;98344.53;;;14.31;43.28
15604;BME280;7902;49.042;9.092;2023-04-15T13:09:05;98346.84;;;14.26;44.95
15604;BME280;7902;49.042;9.092;2023-04-15T13:11:32;98341.63;;;14.34;44.65
15604;BME280;7902;49.042;9.092;2023-04-15T13:14:05;98351.22;;;14.35;45.17
15604;BME280;7902;49.042;9.092;2023-04-15T13:16:32;98351.22;;;14.35;43.07
15604;BME280;7902;49.042;9.092;2023-04-15T13:18:59;98357.88;;;14.39;43.75